createdAt,value
2019-04-04T00:01:04.588Z,82.40
2019-04-04T00:03:32.435Z,82.00
2019-04-04T00:06:00.194Z,82.20
2019-04-04T00:08:30.771Z,82.50
2019-04-04T00:10:57.811Z,82.20
2019-04-04T00:13:25.662Z,81.40
2019-04-04T00:15:53.454Z,81.30
2019-04-04T00:18:21.289Z,81.40
2019-04-04T00:20:49.105Z,82.10
2019-04-04T00:23:16.914Z,81.70
2019-04-04T00:25:44.699Z,82.10
2019-04-04T00:28:14.624Z,82.10
2019-04-04T00:30:42.444Z,81.60
2019-04-04T00:33:10.250Z,82.40
2019-04-04T00:35:38.037Z,82.40
2019-04-04T00:38:07.082Z,82.80
2019-04-04T00:40:35.711Z,82.40
2019-04-04T00:43:03.526Z,83.20
2019-04-04T00:45:31.364Z,82.70
2019-04-04T00:47:59.178Z,81.80
2019-04-04T00:50:27.028Z,81.60
2019-04-04T00:52:54.878Z,81.30
2019-04-04T00:55:22.706Z,81.70
2019-04-04T00:57:50.792Z,81.80
2019-04-04T01:00:19.087Z,82.10
2019-04-04T01:02:46.889Z,82.30
2019-04-04T01:05:14.675Z,82.20
2019-04-04T01:07:42.492Z,82.50
2019-04-04T01:10:25.418Z,82.50
2019-04-04T01:12:53.174Z,84.20
2019-04-04T01:15:20.932Z,84.40
2019-04-04T01:17:48.762Z,84.40
2019-04-04T01:20:20.036Z,84.60
2019-04-04T01:22:46.633Z,84.30
2019-04-04T01:25:14.393Z,84.40
2019-04-04T01:27:42.212Z,84.40
2019-04-04T01:30:20.180Z,84.80
2019-04-04T01:32:48.237Z,84.00
2019-04-04T01:35:16.615Z,84.40
2019-04-04T01:37:44.389Z,85.60
2019-04-04T01:40:12.178Z,85.70
2019-04-04T01:42:39.967Z,84.60
2019-04-04T01:45:08.274Z,83.80
2019-04-04T01:47:36.026Z,84.60
2019-04-04T01:50:04.345Z,83.40
2019-04-04T01:52:32.181Z,84.20
2019-04-04T01:55:03.021Z,85.40
2019-04-04T01:57:29.596Z,85.90
2019-04-04T02:00:03.140Z,86.20
2019-04-04T02:02:30.927Z,86.70
2019-04-04T02:04:58.708Z,87.50
2019-04-04T02:07:27.818Z,87.10
2019-04-04T02:09:56.168Z,86.50
2019-04-04T02:12:23.926Z,87.00
2019-04-04T02:14:51.686Z,86.50
2019-04-04T02:17:20.043Z,86.50
2019-04-04T02:19:49.221Z,87.10
2019-04-04T02:22:17.088Z,86.30
2019-04-04T02:24:44.848Z,85.00
2019-04-04T02:27:12.630Z,82.00
2019-04-04T02:29:45.530Z,81.40
2019-04-04T02:32:15.353Z,82.10
2019-04-04T02:34:43.124Z,80.80
2019-04-04T02:37:10.877Z,80.60
2019-04-04T02:39:38.739Z,82.50
2019-04-04T02:42:06.588Z,83.60
2019-04-04T02:44:34.366Z,82.70
2019-04-04T02:47:02.152Z,82.00
2019-04-04T02:49:40.272Z,82.20
2019-04-04T02:52:08.049Z,82.30
2019-04-04T02:54:35.830Z,81.90
2019-04-04T02:57:08.161Z,82.40
2019-04-04T02:59:33.318Z,82.20
2019-04-04T03:02:04.870Z,83.00
2019-04-04T03:04:30.767Z,83.50
2019-04-04T03:06:58.831Z,84.30
2019-04-04T03:09:26.855Z,83.80
2019-04-04T03:11:54.771Z,84.20
2019-04-04T03:14:22.614Z,84.30
2019-04-04T03:16:50.988Z,84.30
2019-04-04T03:19:18.789Z,85.40
2019-04-04T03:21:46.557Z,85.40
2019-04-04T03:24:14.360Z,86.00
2019-04-04T03:26:42.104Z,86.60
2019-04-04T03:29:10.640Z,87.00
2019-04-04T03:31:39.303Z,86.20
2019-04-04T03:34:10.997Z,86.10
2019-04-04T03:36:36.951Z,85.40
2019-04-04T03:39:06.298Z,83.30
2019-04-04T03:41:35.824Z,80.90
2019-04-04T03:44:04.184Z,81.10
2019-04-04T03:46:37.686Z,81.70
2019-04-04T03:49:01.623Z,83.60
2019-04-04T03:51:29.924Z,84.30
2019-04-04T03:54:00.441Z,85.60
2019-04-04T03:56:33.247Z,85.30
2019-04-04T03:59:00.167Z,84.80
2019-04-04T04:01:27.817Z,84.50
2019-04-04T04:03:55.770Z,84.10
2019-04-04T04:06:23.819Z,84.70
2019-04-04T04:08:54.701Z,84.20
2019-04-04T04:11:21.364Z,84.90
2019-04-04T04:13:50.062Z,84.40
2019-04-04T04:16:17.933Z,83.80
2019-04-04T04:18:45.753Z,82.70
2019-04-04T04:21:13.589Z,82.70
2019-04-04T04:23:41.431Z,83.20
2019-04-04T04:26:09.892Z,82.00
2019-04-04T04:28:37.838Z,81.20
2019-04-04T04:31:15.807Z,81.00
2019-04-04T04:33:45.374Z,80.40
2019-04-04T04:36:15.791Z,80.20
2019-04-04T04:38:42.881Z,79.10
2019-04-04T04:41:10.797Z,79.50
2019-04-04T04:43:38.552Z,79.40
2019-04-04T04:46:09.293Z,79.60
2019-04-04T04:48:37.069Z,79.40
2019-04-04T04:51:11.993Z,79.50
2019-04-04T04:53:39.591Z,81.10
2019-04-04T04:56:08.492Z,80.00
2019-04-04T04:58:36.342Z,80.20
2019-04-04T05:01:04.212Z,79.40
2019-04-04T05:03:32.010Z,80.00
2019-04-04T05:06:02.308Z,79.40
2019-04-04T05:08:29.518Z,79.50
2019-04-04T05:10:57.266Z,79.50
2019-04-04T05:13:28.565Z,79.50
2019-04-04T05:15:54.735Z,79.60
2019-04-04T05:18:22.521Z,78.60
2019-04-04T05:20:50.351Z,78.60
2019-04-04T05:23:18.199Z,79.60
2019-04-04T05:25:53.615Z,79.40
2019-04-04T05:28:15.694Z,79.50
2019-04-04T05:30:45.115Z,80.10
2019-04-04T05:33:27.396Z,81.50
2019-04-04T05:35:54.875Z,81.60
2019-04-04T05:38:22.698Z,81.70
2019-04-04T05:40:50.450Z,81.60
2019-04-04T05:43:18.249Z,81.60
2019-04-04T05:45:46.060Z,81.30
2019-04-04T05:48:13.843Z,82.80
2019-04-04T05:50:43.730Z,82.60
2019-04-04T05:53:11.364Z,82.30
2019-04-04T05:55:39.832Z,82.30
2019-04-04T05:58:08.830Z,82.20
2019-04-04T06:00:38.818Z,82.30
2019-04-04T06:03:06.580Z,81.80
2019-04-04T06:05:34.469Z,81.30
2019-04-04T06:08:02.229Z,81.40
2019-04-04T06:10:30.002Z,81.30
2019-04-04T06:12:57.772Z,81.40
2019-04-04T06:15:25.597Z,80.60
2019-04-04T06:17:53.582Z,80.20
2019-04-04T06:20:51.809Z,81.90
2019-04-04T06:23:20.566Z,82.00
2019-04-04T06:25:48.640Z,81.60
2019-04-04T06:28:16.367Z,81.60
2019-04-04T06:30:44.337Z,81.50
2019-04-04T06:33:12.127Z,81.50
2019-04-04T06:35:40.133Z,81.50
2019-04-04T06:38:07.992Z,80.30
2019-04-04T06:40:35.997Z,79.80
2019-04-04T06:43:04.181Z,79.60
2019-04-04T06:45:33.211Z,80.40
2019-04-04T06:48:01.006Z,80.10
2019-04-04T06:50:28.840Z,79.70
2019-04-04T06:52:56.835Z,79.70
2019-04-04T06:55:28.328Z,79.80
2019-04-04T06:57:54.816Z,79.70
2019-04-04T07:00:22.720Z,79.60
2019-04-04T07:02:50.598Z,79.60
2019-04-04T07:05:18.407Z,79.90
2019-04-04T07:07:46.195Z,79.50
2019-04-04T07:10:14.177Z,79.80
2019-04-04T07:12:42.582Z,77.50
2019-04-04T07:15:12.439Z,77.70
2019-04-04T07:17:41.258Z,78.10
2019-04-04T07:20:09.355Z,76.80
2019-04-04T07:22:37.433Z,76.40
2019-04-04T07:25:06.560Z,78.40
2019-04-04T07:27:34.775Z,77.80
2019-04-04T07:30:02.704Z,75.20
2019-04-04T07:32:30.471Z,75.00
2019-04-04T07:34:58.251Z,73.80
2019-04-04T07:37:26.035Z,74.60
2019-04-04T07:39:53.806Z,72.90
2019-04-04T07:42:23.421Z,73.20
2019-04-04T07:44:54.364Z,72.90
2019-04-04T07:47:20.879Z,73.50
2019-04-04T07:49:48.660Z,71.30
2019-04-04T07:52:17.396Z,71.90
2019-04-04T07:54:45.454Z,72.00
2019-04-04T07:57:13.251Z,71.00
2019-04-04T07:59:41.040Z,71.00
2019-04-04T08:02:08.944Z,71.60
2019-04-04T08:04:36.709Z,71.20
2019-04-04T08:07:04.567Z,71.70
2019-04-04T08:09:32.356Z,70.80
2019-04-04T08:12:00.201Z,71.20
2019-04-04T08:14:27.967Z,71.20
2019-04-04T08:16:55.801Z,71.60
2019-04-04T08:19:23.597Z,72.60
2019-04-04T08:21:51.480Z,73.20
2019-04-04T08:24:19.292Z,73.20
2019-04-04T08:26:47.129Z,73.80
2019-04-04T08:29:14.960Z,74.50
2019-04-04T08:31:42.807Z,73.20
2019-04-04T08:34:10.616Z,74.40
2019-04-04T08:36:38.376Z,74.30
2019-04-04T08:39:09.094Z,73.30
2019-04-04T08:41:36.946Z,73.10
2019-04-04T08:44:04.744Z,72.70
2019-04-04T08:46:32.592Z,73.20
2019-04-04T08:49:00.353Z,71.60
2019-04-04T08:51:28.211Z,71.20
2019-04-04T08:53:56.013Z,72.00
2019-04-04T08:56:23.825Z,71.30
2019-04-04T08:58:51.920Z,71.00
2019-04-04T09:01:19.820Z,72.10
2019-04-04T09:03:47.673Z,71.10
2019-04-04T09:06:15.531Z,71.00
2019-04-04T09:08:45.655Z,70.90
2019-04-04T09:11:14.580Z,72.00
2019-04-04T09:13:42.425Z,71.30
2019-04-04T09:16:10.238Z,70.40
2019-04-04T09:18:38.346Z,70.30
2019-04-04T09:21:06.159Z,70.30
2019-04-04T09:23:34.079Z,70.50
2019-04-04T09:26:05.932Z,70.80
2019-04-04T09:28:31.652Z,70.50
2019-04-04T09:30:59.442Z,70.50
2019-04-04T09:33:27.330Z,70.40
2019-04-04T09:35:55.243Z,70.40
2019-04-04T09:38:23.065Z,70.40
2019-04-04T09:40:50.916Z,70.40
2019-04-04T09:43:18.729Z,70.40
2019-04-04T09:45:46.555Z,70.40
2019-04-04T09:48:14.419Z,70.40
2019-04-04T09:50:47.440Z,70.50
2019-04-04T09:53:15.298Z,70.60
2019-04-04T09:55:43.127Z,70.80
2019-04-04T09:58:11.272Z,70.70
2019-04-04T10:00:39.091Z,69.60
2019-04-04T10:03:06.883Z,70.60
2019-04-04T10:05:35.977Z,68.30
2019-04-04T10:08:03.823Z,68.30
2019-04-04T10:10:46.765Z,65.40
2019-04-04T10:13:14.653Z,64.10
2019-04-04T10:15:42.820Z,62.20
2019-04-04T10:18:10.633Z,61.20
2019-04-04T10:20:38.413Z,57.70
2019-04-04T10:23:06.232Z,57.30
2019-04-04T10:25:34.076Z,53.30
2019-04-04T10:28:01.899Z,52.30
2019-04-04T10:30:29.720Z,52.00
2019-04-04T10:32:57.569Z,52.20
2019-04-04T10:35:25.496Z,51.80
2019-04-04T10:37:53.344Z,52.40
2019-04-04T10:40:21.162Z,51.50
2019-04-04T10:42:48.958Z,52.30
2019-04-04T10:45:16.724Z,51.90
2019-04-04T10:47:44.551Z,49.80
2019-04-04T10:50:12.708Z,49.50
2019-04-04T10:52:40.550Z,48.90
2019-04-04T10:55:08.443Z,47.80
2019-04-04T10:57:36.278Z,48.00
2019-04-04T11:00:07.233Z,46.90
2019-04-04T11:02:35.065Z,48.00
2019-04-04T11:05:02.949Z,48.40
2019-04-04T11:07:30.757Z,46.80
2019-04-04T11:10:05.135Z,45.90
2019-04-04T11:12:34.433Z,43.20
2019-04-04T11:15:02.637Z,45.30
2019-04-04T11:17:30.494Z,46.60
2019-04-04T11:19:58.543Z,47.20
2019-04-04T11:22:26.333Z,50.10
2019-04-04T11:24:54.225Z,49.40
2019-04-04T11:27:22.085Z,49.80
2019-04-04T11:29:49.930Z,50.30
2019-04-04T11:32:17.739Z,52.10
2019-04-04T11:34:52.980Z,52.90
2019-04-04T11:37:15.251Z,51.90
2019-04-04T11:39:53.954Z,51.80
2019-04-04T11:42:12.876Z,52.00
2019-04-04T11:44:40.690Z,52.90
2019-04-04T11:47:08.477Z,52.30
2019-04-04T11:49:36.402Z,52.60
2019-04-04T11:52:04.217Z,50.50
2019-04-04T11:54:34.934Z,50.80
2019-04-04T11:57:02.794Z,50.20
2019-04-04T11:59:30.846Z,49.50
2019-04-04T12:01:59.628Z,47.90
2019-04-04T12:04:27.483Z,48.30
2019-04-04T12:06:55.285Z,46.30
2019-04-04T12:09:38.260Z,46.70
2019-04-04T12:12:06.062Z,43.80
2019-04-04T12:14:33.903Z,43.80
2019-04-04T12:17:01.667Z,43.60
2019-04-04T12:20:19.498Z,43.60
2019-04-04T12:22:47.272Z,44.40
2019-04-04T12:25:15.135Z,39.40
2019-04-04T12:27:42.912Z,38.80
2019-04-04T12:30:10.979Z,35.90
2019-04-04T12:32:38.836Z,36.90
2019-04-04T12:35:06.827Z,37.10
2019-04-04T12:37:34.620Z,37.00
2019-04-04T12:40:02.462Z,38.30
2019-04-04T12:42:30.299Z,39.40
2019-04-04T12:44:58.521Z,40.60
2019-04-04T12:47:26.344Z,39.50
2019-04-04T12:49:54.114Z,41.10
2019-04-04T12:52:21.917Z,42.20
2019-04-04T12:54:50.394Z,42.90
2019-04-04T12:57:18.316Z,42.60
2019-04-04T12:59:46.371Z,43.10
2019-04-04T13:02:14.213Z,43.60
2019-04-04T13:04:42.067Z,43.20
2019-04-04T13:07:09.878Z,40.80
2019-04-04T13:09:37.697Z,40.80
2019-04-04T13:12:05.534Z,43.00
2019-04-04T13:14:33.313Z,42.90
2019-04-04T13:17:01.118Z,42.20
2019-04-04T13:19:29.068Z,44.80
2019-04-04T13:21:56.893Z,44.50
2019-04-04T13:24:24.702Z,44.90
2019-04-04T13:26:52.465Z,44.20
2019-04-04T13:29:20.309Z,44.40
2019-04-04T13:31:48.089Z,44.40
2019-04-04T13:34:17.969Z,45.90
2019-04-04T13:36:45.746Z,46.30
2019-04-04T13:39:13.580Z,47.00
2019-04-04T13:41:41.374Z,49.00
2019-04-04T13:44:09.203Z,49.60
2019-04-04T13:46:37.045Z,50.30
2019-04-04T13:49:04.903Z,50.80
2019-04-04T13:51:32.712Z,51.60
2019-04-04T13:54:00.536Z,51.50
2019-04-04T13:56:29.349Z,52.80
2019-04-04T13:59:01.159Z,53.00
2019-04-04T14:01:27.157Z,52.70
2019-04-04T14:03:55.038Z,53.10
2019-04-04T14:06:22.830Z,53.20
2019-04-04T14:08:50.661Z,53.80
2019-04-04T14:11:18.510Z,54.10
2019-04-04T14:13:48.563Z,54.80
2019-04-04T14:16:16.287Z,55.40
2019-04-04T14:18:45.253Z,54.30
2019-04-04T14:21:13.073Z,55.80
2019-04-04T14:23:40.879Z,56.90
2019-04-04T14:26:08.735Z,56.40
2019-04-04T14:28:36.608Z,57.20
2019-04-04T14:31:04.431Z,58.30
2019-04-04T14:33:32.228Z,60.00
2019-04-04T14:36:00.034Z,60.00
2019-04-04T14:38:27.926Z,60.00
2019-04-04T14:40:55.755Z,60.00
2019-04-04T14:43:23.583Z,60.30
2019-04-04T14:45:51.408Z,61.80
2019-04-04T14:48:19.366Z,61.60
2019-04-04T14:50:47.550Z,62.90
2019-04-04T14:53:15.398Z,64.70
2019-04-04T14:55:43.490Z,64.70
2019-04-04T14:58:11.426Z,65.90
2019-04-04T15:00:39.645Z,65.90
2019-04-04T15:03:07.539Z,66.70
2019-04-04T15:05:36.011Z,66.90
2019-04-04T15:08:04.150Z,67.10
2019-04-04T15:10:42.168Z,67.90
2019-04-04T15:13:10.027Z,68.40
2019-04-04T15:16:01.733Z,69.40
2019-04-04T15:18:29.597Z,70.70
2019-04-04T15:20:57.506Z,71.50
2019-04-04T15:23:25.558Z,72.10
2019-04-04T15:25:53.378Z,72.40
2019-04-04T15:28:21.194Z,72.80
2019-04-04T15:30:49.048Z,72.90
2019-04-04T15:33:16.838Z,72.90
2019-04-04T15:35:44.653Z,73.60
2019-04-04T15:38:12.463Z,74.10
2019-04-04T15:40:40.444Z,74.70
2019-04-04T15:43:08.271Z,75.30
2019-04-04T15:45:36.103Z,74.60
2019-04-04T15:48:03.882Z,74.70
2019-04-04T15:50:31.712Z,74.80
2019-04-04T15:52:59.457Z,74.60
2019-04-04T15:55:27.269Z,74.50
2019-04-04T15:57:55.044Z,74.80
2019-04-04T16:00:23.003Z,75.60
2019-04-04T16:02:50.788Z,75.50
2019-04-04T16:05:18.573Z,75.60
2019-04-04T16:07:46.359Z,75.60
2019-04-04T16:10:14.116Z,75.60
2019-04-04T16:12:41.881Z,76.10
2019-04-04T16:15:09.805Z,75.70
2019-04-04T16:17:37.532Z,75.90
2019-04-04T16:20:06.784Z,75.80
2019-04-04T16:22:34.552Z,76.50
2019-04-04T16:25:02.426Z,76.50
2019-04-04T16:27:30.268Z,76.60
2019-04-04T16:29:58.181Z,76.20
2019-04-04T16:32:25.940Z,76.20
2019-04-04T16:34:53.756Z,75.30
2019-04-04T16:37:21.620Z,76.40
2019-04-04T16:39:49.534Z,75.20
2019-04-04T16:42:17.335Z,76.40
2019-04-04T16:44:45.159Z,76.00
2019-04-04T16:47:21.710Z,75.90
2019-04-04T16:49:49.527Z,75.30
2019-04-04T16:52:17.288Z,76.10
2019-04-04T16:54:45.126Z,76.10
2019-04-04T16:57:13.026Z,76.10
2019-04-04T16:59:40.832Z,76.60
2019-04-04T17:02:08.599Z,76.50
2019-04-04T17:04:36.487Z,76.40
2019-04-04T17:07:04.322Z,76.50
2019-04-04T17:09:32.216Z,76.70
2019-04-04T17:12:00.012Z,76.70
2019-04-04T17:14:27.800Z,76.50
2019-04-04T17:16:55.651Z,76.00
2019-04-04T17:19:23.606Z,76.40
2019-04-04T17:21:51.432Z,76.60
2019-04-04T17:24:19.262Z,77.30
2019-04-04T17:26:47.174Z,76.80
2019-04-04T17:29:14.973Z,76.80
2019-04-04T17:31:42.745Z,76.60
2019-04-04T17:34:10.541Z,76.60
2019-04-04T17:36:38.319Z,77.10
2019-04-04T17:39:07.425Z,77.20
2019-04-04T17:41:35.334Z,77.70
2019-04-04T17:44:04.297Z,77.60
2019-04-04T17:46:32.322Z,77.60
2019-04-04T17:49:00.106Z,77.90
2019-04-04T17:51:28.343Z,77.90
2019-04-04T17:53:56.243Z,78.10
2019-04-04T17:56:24.110Z,78.40
2019-04-04T17:58:52.023Z,78.80
2019-04-04T18:01:27.359Z,78.90
2019-04-04T18:03:55.243Z,78.90
2019-04-04T18:06:24.891Z,79.10
2019-04-04T18:08:52.698Z,79.50
2019-04-04T18:11:20.465Z,80.00
2019-04-04T18:13:48.302Z,80.00
2019-04-04T18:16:16.122Z,80.10
2019-04-04T18:18:43.941Z,80.00
2019-04-04T18:21:11.806Z,80.10
2019-04-04T18:23:39.614Z,80.00
2019-04-04T18:26:07.432Z,80.10
2019-04-04T18:28:35.284Z,80.30
2019-04-04T18:31:03.312Z,80.10
2019-04-04T18:33:31.223Z,79.50
2019-04-04T18:35:59.118Z,79.50
2019-04-04T18:38:26.874Z,80.00
2019-04-04T18:40:54.907Z,80.10
2019-04-04T18:43:22.797Z,79.50
2019-04-04T18:45:50.595Z,79.80
2019-04-04T18:48:18.426Z,79.20
2019-04-04T18:50:46.494Z,79.50
2019-04-04T18:53:14.390Z,80.00
2019-04-04T18:55:42.185Z,80.00
2019-04-04T18:58:10.020Z,80.00
2019-04-04T19:00:37.954Z,80.80
2019-04-04T19:03:05.758Z,80.10
2019-04-04T19:05:33.529Z,80.00
2019-04-04T19:08:01.331Z,80.00
2019-04-04T19:10:29.308Z,80.30
2019-04-04T19:13:05.154Z,80.00
2019-04-04T19:15:26.839Z,80.50
2019-04-04T19:17:54.683Z,80.70
2019-04-04T19:20:22.502Z,80.00
2019-04-04T19:22:50.359Z,80.00
2019-04-04T19:25:21.400Z,80.90
2019-04-04T19:27:49.229Z,81.10
2019-04-04T19:30:19.661Z,81.10
2019-04-04T19:32:47.655Z,81.30
2019-04-04T19:35:16.860Z,81.10
2019-04-04T19:37:44.686Z,81.80
2019-04-04T19:40:14.243Z,81.10
2019-04-04T19:42:42.070Z,80.90
2019-04-04T19:45:11.090Z,80.90
2019-04-04T19:47:38.959Z,81.10
2019-04-04T19:50:09.499Z,82.70
2019-04-04T19:52:37.415Z,82.00
2019-04-04T19:55:06.731Z,82.20
2019-04-04T19:57:34.846Z,82.10
2019-04-04T20:00:02.922Z,82.20
2019-04-04T20:02:30.848Z,82.30
2019-04-04T20:04:58.670Z,82.30
2019-04-04T20:07:26.496Z,83.40
2019-04-04T20:09:54.266Z,83.10
2019-04-04T20:12:22.066Z,83.90
2019-04-04T20:14:49.839Z,83.90
2019-04-04T20:17:17.646Z,84.20
2019-04-04T20:19:47.312Z,84.20
2019-04-04T20:22:15.172Z,84.80
2019-04-04T20:24:43.015Z,85.40
2019-04-04T20:27:11.083Z,86.00
2019-04-04T20:29:38.900Z,85.70
2019-04-04T20:32:06.683Z,85.40
2019-04-04T20:34:34.440Z,85.30
2019-04-04T20:37:02.282Z,85.00
2019-04-04T20:39:30.319Z,84.60
2019-04-04T20:41:58.157Z,84.70
2019-04-04T20:44:25.982Z,84.80
2019-04-04T20:46:53.880Z,84.90
2019-04-04T20:49:21.705Z,84.70
2019-04-04T20:51:49.463Z,84.60
2019-04-04T20:54:17.305Z,85.00
2019-04-04T20:56:45.085Z,85.00
2019-04-04T20:59:12.815Z,85.20
2019-04-04T21:01:40.664Z,84.90
2019-04-04T21:04:08.463Z,84.80
2019-04-04T21:06:36.253Z,84.60
2019-04-04T21:09:07.030Z,84.70
2019-04-04T21:11:40.269Z,84.70
2019-04-04T21:14:08.115Z,84.60
2019-04-04T21:16:35.913Z,84.70
2019-04-04T21:19:03.785Z,84.60
2019-04-04T21:21:31.894Z,84.60
2019-04-04T21:23:59.717Z,84.60
2019-04-04T21:26:27.586Z,83.60
2019-04-04T21:28:55.349Z,83.60
2019-04-04T21:31:23.330Z,84.10
2019-04-04T21:33:51.120Z,84.10
2019-04-04T21:36:18.934Z,83.60
2019-04-04T21:38:46.928Z,83.90
2019-04-04T21:41:14.820Z,83.60
2019-04-04T21:43:44.964Z,83.70
2019-04-04T21:46:12.704Z,83.40
2019-04-04T21:48:41.679Z,83.60
2019-04-04T21:51:09.548Z,84.10
2019-04-04T21:53:37.432Z,84.60
2019-04-04T21:56:05.204Z,84.60
2019-04-04T21:58:33.009Z,84.60
2019-04-04T22:01:03.786Z,84.70
2019-04-04T22:03:31.585Z,84.70
2019-04-04T22:05:59.427Z,84.70
2019-04-04T22:08:27.224Z,84.30
2019-04-04T22:10:55.039Z,84.60
2019-04-04T22:13:22.897Z,84.60
2019-04-04T22:15:50.685Z,84.40
2019-04-04T22:18:18.472Z,84.30
2019-04-04T22:20:46.246Z,84.30
2019-04-04T22:23:13.997Z,84.80
2019-04-04T22:25:41.771Z,84.60
2019-04-04T22:28:09.809Z,84.90
2019-04-04T22:30:38.258Z,84.70
2019-04-04T22:33:06.032Z,84.40
2019-04-04T22:35:33.838Z,84.00
2019-04-04T22:38:01.677Z,84.70
2019-04-04T22:40:39.722Z,84.70
2019-04-04T22:43:07.544Z,83.90
2019-04-04T22:45:35.361Z,84.30
2019-04-04T22:48:03.256Z,84.80
2019-04-04T22:50:31.015Z,84.60
2019-04-04T22:52:58.843Z,84.40
2019-04-04T22:55:26.846Z,84.00
2019-04-04T22:57:54.623Z,84.50
2019-04-04T23:00:22.379Z,84.30
2019-04-04T23:02:50.123Z,84.50
2019-04-04T23:05:17.938Z,84.60
2019-04-04T23:07:45.685Z,84.90
2019-04-04T23:10:13.592Z,85.50
2019-04-04T23:12:41.353Z,85.40
2019-04-04T23:15:09.386Z,85.00
2019-04-04T23:17:37.132Z,85.50
2019-04-04T23:20:06.312Z,85.40
2019-04-04T23:22:34.061Z,86.20
2019-04-04T23:25:01.877Z,86.20
2019-04-04T23:27:29.740Z,86.20
2019-04-04T23:29:57.505Z,87.80
2019-04-04T23:32:25.330Z,87.90
2019-04-04T23:34:53.088Z,88.70
2019-04-04T23:37:20.915Z,88.70
2019-04-04T23:39:48.777Z,89.40
2019-04-04T23:42:16.546Z,89.40
2019-04-04T23:44:45.634Z,90.10
2019-04-04T23:47:13.396Z,89.50
2019-04-04T23:49:41.217Z,89.60
2019-04-04T23:52:09.052Z,89.50
2019-04-04T23:54:36.833Z,89.60
2019-04-04T23:57:04.663Z,89.40
2019-04-04T23:59:32.425Z,90.40
